Time;durP1;ratioP1;P1;durP2;ratioP2;P2;SDS_P1;SDS_P2;PMS_P1;PMS_P2;Temp;Humidity;BMP_temperature;BMP_pressure;BME280_temperature;BME280_humidity;BME280_pressure;Samples;Min_cycle;Max_cycle;Signal;HPM_P1;HPM_P2
2022/09/29 00:01:01;;;;;;;15.73;6.72;;;;;;;16.64;66.09;97208.84;4486046;32;20424;-77
2022/09/29 00:03:26;;;;;;;17.55;7.00;;;;;;;16.58;66.24;97209.50;4487255;31;20103;-80
2022/09/29 00:05:53;;;;;;;17.17;8.10;;;;;;;16.58;66.43;97206.00;4484431;31;20081;-81
2022/09/29 00:08:20;;;;;;;17.47;8.43;;;;;;;16.61;66.09;97198.53;4475663;32;20134;-80
2022/09/29 00:10:46;;;;;;;19.33;8.07;;;;;;;16.80;65.50;97199.25;4459153;32;20116;-79
2022/09/29 00:13:12;;;;;;;19.15;8.45;;;;;;;16.83;65.40;97204.28;4487087;32;20140;-78
2022/09/29 00:15:38;;;;;;;18.02;8.80;;;;;;;16.90;65.08;97197.31;4474612;32;20076;-79
2022/09/29 00:18:03;;;;;;;22.30;9.02;;;;;;;16.94;64.98;97198.69;4457446;32;20101;-80
2022/09/29 00:20:29;;;;;;;19.35;8.80;;;;;;;16.99;64.81;97204.31;4471754;32;20141;-80
2022/09/29 00:22:54;;;;;;;18.80;8.77;;;;;;;16.70;65.95;97202.88;4471588;32;20111;-80
2022/09/29 00:25:20;;;;;;;24.77;9.25;;;;;;;16.84;65.50;97196.16;4471614;32;20372;-80
2022/09/29 00:27:45;;;;;;;18.23;8.90;;;;;;;16.93;65.21;97198.81;4444281;32;20132;-80
2022/09/29 00:30:11;;;;;;;19.10;8.75;;;;;;;16.79;65.66;97202.94;4484145;32;20148;-80
2022/09/29 00:32:37;;;;;;;18.95;8.48;;;;;;;16.61;66.74;97193.22;4472991;32;20092;-80
2022/09/29 00:35:02;;;;;;;18.40;8.57;;;;;;;16.73;65.83;97193.75;4486903;32;20076;-79
2022/09/29 00:37:28;;;;;;;18.92;9.18;;;;;;;16.92;65.45;97197.16;4486951;32;20126;-80
2022/09/29 00:39:53;;;;;;;16.30;7.82;;;;;;;16.99;65.21;97193.69;4486919;32;20096;-81
2022/09/29 00:42:19;;;;;;;16.65;7.97;;;;;;;17.06;64.96;97189.37;4486947;32;20092;-81
2022/09/29 00:45:12;;;;;;;18.40;8.32;;;;;;;17.10;64.78;97188.03;4472824;32;20477;-81
2022/09/29 00:47:40;;;;;;;19.73;9.00;;;;;;;17.08;64.77;97187.38;4487087;32;20116;-80
2022/09/29 00:50:13;;;;;;;17.60;7.85;;;;;;;17.03;64.81;97183.53;4478687;32;20109;-80
2022/09/29 00:52:42;;;;;;;18.23;8.50;;;;;;;17.08;64.63;97182.06;4457125;32;20439;-80
2022/09/29 00:55:35;;;;;;;15.73;8.18;;;;;;;16.94;64.91;97179.19;4457102;32;20096;-79
2022/09/29 00:58:00;;;;;;;16.83;8.18;;;;;;;16.85;65.36;97179.19;4450572;32;20153;-79
2022/09/29 01:00:26;;;;;;;17.80;8.32;;;;;;;16.84;64.98;97187.31;4471035;32;20108;-79
2022/09/29 01:02:56;;;;;;;15.23;7.95;;;;;;;16.09;68.34;97204.78;4471096;32;20389;-78
2022/09/29 01:05:31;;;;;;;19.42;7.95;;;;;;;16.60;66.35;97202.19;4455938;32;20127;-79
2022/09/29 01:07:59;;;;;;;16.45;8.27;;;;;;;16.61;66.41;97206.53;4457081;32;20468;-80
2022/09/29 01:10:26;;;;;;;18.83;8.35;;;;;;;16.82;65.62;97195.47;4456979;32;20154;-80
2022/09/29 01:12:52;;;;;;;15.32;8.38;;;;;;;16.85;65.44;97189.81;4456979;32;20085;-80
2022/09/29 01:15:18;;;;;;;16.25;8.07;;;;;;;16.93;65.21;97182.88;4470953;32;20128;-80
2022/09/29 01:17:45;;;;;;;16.07;7.10;;;;;;;16.99;65.01;97180.37;4470968;32;20131;-80
2022/09/29 01:20:12;;;;;;;18.17;8.52;;;;;;;16.73;65.97;97183.13;4457319;32;20131;-80
2022/09/29 01:23:02;;;;;;;17.45;8.15;;;;;;;16.96;65.10;97182.53;4456624;32;20092;-80
2022/09/29 01:25:52;;;;;;;15.93;7.65;;;;;;;16.97;65.15;97181.53;4471255;32;20130;-79
2022/09/29 01:28:48;;;;;;;15.98;7.12;;;;;;;16.91;65.36;97185.69;4470927;32;20085;-79
2022/09/29 01:31:13;;;;;;;17.67;7.65;;;;;;;16.89;65.29;97185.03;4470952;32;20623;-79
2022/09/29 01:33:43;;;;;;;15.52;7.35;;;;;;;16.77;65.67;97180.97;4470839;32;20081;-79
2022/09/29 01:36:26;;;;;;;14.25;6.65;;;;;;;16.82;65.40;97176.03;4470673;32;20077;-80
2022/09/29 01:39:03;;;;;;;14.75;6.75;;;;;;;16.85;65.28;97179.19;4470825;32;20150;-79
2022/09/29 01:41:42;;;;;;;14.77;6.37;;;;;;;16.83;65.27;97175.03;4456451;32;20105;-78
2022/09/29 01:44:10;;;;;;;;;;;;;;;16.75;65.53;97173.16;4471042;32;20487;-79
2022/09/29 01:46:40;;;;;;;15.50;6.57;;;;;;;16.92;64.93;97168.75;4470811;32;19968;-79
2022/09/29 01:49:05;;;;;;;14.07;7.45;;;;;;;16.87;65.11;97165.72;4456510;32;20119;-82
2022/09/29 01:51:52;;;;;;;13.98;7.05;;;;;;;16.79;65.12;97168.34;4456340;32;20097;-81
2022/09/29 01:54:36;;;;;;;15.13;7.10;;;;;;;16.93;64.81;97158.94;4456432;32;20342;-82
2022/09/29 01:57:08;;;;;;;15.52;6.12;;;;;;;16.78;65.02;97162.19;4470556;32;20106;-82
2022/09/29 01:59:50;;;;;;;13.88;6.05;;;;;;;16.86;64.62;97164.91;4456246;32;20527;-82
2022/09/29 02:02:21;;;;;;;15.82;6.12;;;;;;;16.95;64.40;97162.25;4456354;32;20159;-82
2022/09/29 02:04:51;;;;;;;13.62;6.07;;;;;;;16.94;64.31;97157.91;4456338;32;20119;-82
2022/09/29 02:07:21;;;;;;;13.52;6.45;;;;;;;16.77;64.81;97157.87;4456340;32;20111;-82
2022/09/29 02:09:59;;;;;;;13.90;6.00;;;;;;;16.84;64.60;97153.59;4456156;32;20124;-82
2022/09/29 02:12:25;;;;;;;13.43;5.90;;;;;;;16.94;64.44;97150.78;4456148;32;20108;-81
2022/09/29 02:14:52;;;;;;;14.45;6.22;;;;;;;16.89;64.54;97158.41;4443004;32;20088;-82
2022/09/29 02:17:20;;;;;;;13.32;5.72;;;;;;;16.96;64.46;97156.78;4471628;32;20111;-81
2022/09/29 02:19:48;;;;;;;12.40;5.18;;;;;;;17.02;64.37;97153.47;4472141;32;20112;-80
2022/09/29 02:22:13;;;;;;;16.00;5.78;;;;;;;17.06;64.27;97162.78;4457982;32;20156;-80
2022/09/29 02:24:39;;;;;;;13.18;5.95;;;;;;;17.08;64.28;97154.62;4472192;32;20119;-80
2022/09/29 02:27:05;;;;;;;12.55;5.40;;;;;;;17.06;64.33;97152.13;4472170;32;20124;-81
2022/09/29 02:29:32;;;;;;;15.30;6.22;;;;;;;17.09;64.33;97156.28;4472223;32;20139;-81
2022/09/29 02:32:00;;;;;;;12.90;5.40;;;;;;;17.09;64.29;97159.78;4458109;32;20121;-81
2022/09/29 02:34:26;;;;;;;12.60;5.50;;;;;;;17.11;64.30;97159.59;4472538;32;20105;-81
2022/09/29 02:36:51;;;;;;;14.38;5.70;;;;;;;17.09;64.33;97154.47;4458252;32;20088;-80
2022/09/29 02:39:41;;;;;;;14.95;6.32;;;;;;;17.05;64.42;97150.44;4471950;32;20123;-82
2022/09/29 02:42:24;;;;;;;13.60;5.65;;;;;;;17.13;64.40;97157.59;4472221;32;20123;-81
2022/09/29 02:45:26;;;;;;;13.48;5.68;;;;;;;17.10;64.50;97173.91;4444971;32;20100;-81
2022/09/29 02:48:04;;;;;;;14.13;5.97;;;;;;;17.17;64.45;97179.41;4457936;32;20148;-81
2022/09/29 02:50:41;;;;;;;12.90;5.47;;;;;;;17.09;64.63;97178.41;4472091;32;20531;-80
2022/09/29 02:53:32;;;;;;;13.85;6.12;;;;;;;17.15;64.61;97179.56;4458056;32;20196;-81
2022/09/29 02:56:24;;;;;;;13.70;6.60;;;;;;;17.07;64.93;97184.88;4471734;32;20148;-81
2022/09/29 02:59:14;;;;;;;14.15;6.85;;;;;;;17.02;65.11;97185.38;4453950;32;20085;-80
2022/09/29 03:01:51;;;;;;;15.13;6.97;;;;;;;17.04;65.35;97185.22;4457768;32;20156;-80
2022/09/29 03:04:19;;;;;;;17.00;8.18;;;;;;;17.02;65.56;97179.25;4457858;32;20130;-80
2022/09/29 03:06:45;;;;;;;16.95;8.32;;;;;;;16.78;66.35;97178.12;4471894;32;20097;-81
2022/09/29 03:09:10;;;;;;;15.98;7.90;;;;;;;16.95;65.81;97168.41;4471872;32;20334;-81
2022/09/29 03:11:36;;;;;;;16.15;7.35;;;;;;;16.92;66.02;97174.06;4471834;32;20139;-80
2022/09/29 03:14:02;;;;;;;16.17;8.50;;;;;;;17.02;65.89;97189.88;4471887;32;20175;-80
2022/09/29 03:16:27;;;;;;;15.20;7.03;;;;;;;17.08;65.74;97190.03;4471932;32;20100;-80
2022/09/29 03:18:52;;;;;;;13.73;6.62;;;;;;;17.13;65.64;97191.38;4457622;32;20114;-80
2022/09/29 03:21:18;;;;;;;16.15;7.28;;;;;;;17.12;65.50;97192.38;4471637;32;20108;-79
2022/09/29 03:23:43;;;;;;;15.05;7.18;;;;;;;16.86;65.84;97195.97;4457593;32;20117;-79
2022/09/29 03:26:09;;;;;;;13.25;6.43;;;;;;;16.75;66.40;97193.59;4457657;32;20124;-78
2022/09/29 03:28:34;;;;;;;14.80;6.70;;;;;;;16.83;65.92;97189.16;4470998;32;20085;-79
2022/09/29 03:31:05;;;;;;;14.90;6.93;;;;;;;16.51;67.23;97181.87;4444646;32;20157;-78
2022/09/29 03:33:31;;;;;;;13.20;6.40;;;;;;;16.54;67.22;97183.41;4471722;32;20101;-79
2022/09/29 03:35:56;;;;;;;15.07;6.95;;;;;;;16.68;66.51;97180.94;4471720;32;20100;-79
2022/09/29 03:38:21;;;;;;;14.52;6.90;;;;;;;16.70;66.71;97178.12;4471491;32;20076;-79
2022/09/29 03:40:47;;;;;;;13.55;6.97;;;;;;;16.63;67.05;97182.41;4471525;32;20140;-79
2022/09/29 03:43:12;;;;;;;14.18;6.78;;;;;;;16.68;66.96;97177.44;4471619;32;20114;-79
2022/09/29 03:45:46;;;;;;;14.38;7.28;;;;;;;16.66;67.05;97169.62;4457401;32;20112;-79
2022/09/29 03:48:12;;;;;;;16.02;7.95;;;;;;;16.76;66.97;97172.16;4471733;32;20429;-80
2022/09/29 03:50:37;;;;;;;15.63;7.35;;;;;;;16.68;67.21;97169.47;4471406;32;20169;-81
2022/09/29 03:53:03;;;;;;;15.25;7.32;;;;;;;16.75;66.93;97157.19;4457212;32;20461;-80
2022/09/29 03:55:28;;;;;;;15.52;6.97;;;;;;;16.71;66.93;97159.34;4471440;32;20088;-79
2022/09/29 03:57:54;;;;;;;14.55;6.70;;;;;;;16.78;66.73;97161.34;4457181;32;20093;-80
2022/09/29 04:00:19;;;;;;;14.63;7.65;;;;;;;16.72;66.85;97149.53;4471501;32;20428;-80
2022/09/29 04:02:44;;;;;;;14.45;6.97;;;;;;;16.80;66.75;97146.06;4471547;32;20123;-81
2022/09/29 04:05:10;;;;;;;14.40;6.85;;;;;;;16.87;66.66;97153.25;4471393;32;20165;-80
2022/09/29 04:07:35;;;;;;;16.75;7.90;;;;;;;16.94;66.55;97157.91;4457245;32;20458;-79
2022/09/29 04:10:01;;;;;;;13.68;6.87;;;;;;;16.90;66.62;97150.28;4457387;32;20113;-80
2022/09/29 04:12:26;;;;;;;14.38;7.05;;;;;;;16.94;66.60;97149.94;4471443;32;20128;-79
2022/09/29 04:14:51;;;;;;;14.98;7.60;;;;;;;16.99;66.51;97156.44;4457419;32;20123;-81
2022/09/29 04:17:17;;;;;;;15.40;7.65;;;;;;;17.09;66.32;97140.31;4471367;32;20132;-80
2022/09/29 04:19:42;;;;;;;16.50;8.10;;;;;;;17.06;66.38;97146.81;4471312;32;20126;-82
2022/09/29 04:22:08;;;;;;;16.67;7.85;;;;;;;17.09;66.30;97146.50;4471140;32;20134;-81
2022/09/29 04:24:33;;;;;;;16.75;8.10;;;;;;;17.09;66.35;97150.97;4471425;32;20084;-83
2022/09/29 04:26:59;;;;;;;17.27;8.15;;;;;;;17.12;66.40;97149.81;4472905;32;20143;-82
2022/09/29 04:29:24;;;;;;;16.50;7.87;;;;;;;17.14;66.36;97147.81;4486196;32;20089;-83
2022/09/29 04:31:50;;;;;;;17.67;9.30;;;;;;;17.16;66.29;97145.81;4480024;32;20104;-83
2022/09/29 04:34:15;;;;;;;19.67;10.30;;;;;;;17.16;66.27;97149.31;4478968;32;20151;-83
2022/09/29 04:36:40;;;;;;;19.83;9.57;;;;;;;17.19;66.14;97154.31;4486317;32;20443;-83
2022/09/29 04:39:06;;;;;;;21.27;10.07;;;;;;;17.21;66.06;97141.66;4486347;31;20151;-83
2022/09/29 04:41:34;;;;;;;22.48;10.85;;;;;;;17.24;65.97;97140.50;4486698;31;20096;-82
2022/09/29 04:43:59;;;;;;;21.10;10.63;;;;;;;17.21;65.98;97148.81;4486625;31;20103;-81
2022/09/29 04:46:25;;;;;;;24.63;11.75;;;;;;;17.25;65.80;97148.31;4485138;31;20114;-79
2022/09/29 04:48:50;;;;;;;24.12;11.80;;;;;;;16.89;66.71;97147.78;4467894;32;20147;-80
2022/09/29 04:51:15;;;;;;;23.05;12.60;;;;;;;16.74;67.46;97149.38;4484426;32;20169;-80
2022/09/29 04:53:41;;;;;;;23.98;12.63;;;;;;;16.98;66.56;97154.78;4486427;31;20085;-78
2022/09/29 04:56:07;;;;;;;22.90;11.95;;;;;;;17.15;66.05;97154.78;4478477;32;20119;-78
2022/09/29 04:58:33;;;;;;;46.37;13.62;;;;;;;17.14;66.02;97153.97;4466201;31;20139;-79
2022/09/29 05:01:11;;;;;;;26.15;12.88;;;;;;;17.02;66.34;97155.28;4486681;31;20399;-79
2022/09/29 05:03:37;;;;;;;37.80;13.23;;;;;;;17.18;65.97;97154.47;4486881;32;20104;-78
2022/09/29 05:06:02;;;;;;;22.58;12.50;;;;;;;17.21;65.79;97160.31;4486718;32;20107;-79
2022/09/29 05:08:27;;;;;;;25.40;12.65;;;;;;;17.20;65.83;97157.78;4486792;32;20119;-80
2022/09/29 05:10:53;;;;;;;24.27;12.60;;;;;;;16.92;66.57;97154.59;4472316;32;20143;-80
2022/09/29 05:13:18;;;;;;;33.92;12.65;;;;;;;17.12;66.17;97155.12;4486293;32;20137;-80
2022/09/29 05:15:44;;;;;;;25.98;11.60;;;;;;;17.11;66.17;97154.28;4486589;32;20322;-80
2022/09/29 05:18:09;;;;;;;23.27;12.45;;;;;;;17.20;66.06;97161.28;4486461;32;20116;-78
2022/09/29 05:20:34;;;;;;;32.75;12.43;;;;;;;17.07;66.35;97166.25;4459157;32;20123;-79
2022/09/29 05:23:00;;;;;;;25.67;12.00;;;;;;;17.03;66.55;97162.25;4472317;32;20128;-79
2022/09/29 05:25:26;;;;;;;21.33;11.18;;;;;;;17.12;66.39;97160.47;4486704;32;20088;-81
2022/09/29 05:27:52;;;;;;;20.17;10.02;;;;;;;16.96;66.74;97169.22;4486877;32;20127;-82
2022/09/29 05:30:17;;;;;;;19.55;10.20;;;;;;;16.96;67.21;97163.91;4471835;32;20128;-79
2022/09/29 05:32:43;;;;;;;19.15;10.18;;;;;;;16.97;67.26;97162.91;4486126;32;20356;-79
2022/09/29 05:35:09;;;;;;;20.33;10.40;;;;;;;17.04;67.00;97156.78;4485973;32;20106;-80
2022/09/29 05:37:34;;;;;;;19.08;9.70;;;;;;;16.80;67.91;97156.69;4485664;32;20096;-79
2022/09/29 05:40:00;;;;;;;20.62;10.60;;;;;;;16.99;67.05;97167.06;4485789;32;20092;-79
2022/09/29 05:42:26;;;;;;;18.10;9.88;;;;;;;17.04;66.99;97163.94;4471304;32;20131;-80
2022/09/29 05:44:52;;;;;;;17.83;9.20;;;;;;;17.08;66.89;97165.28;4471288;32;20112;-81
2022/09/29 05:47:17;;;;;;;17.48;9.30;;;;;;;17.15;66.50;97165.44;4471765;32;20128;-81
2022/09/29 05:49:43;;;;;;;18.23;8.82;;;;;;;17.06;66.57;97172.59;4459022;32;20131;-86
2022/09/29 05:52:08;;;;;;;17.75;8.93;;;;;;;17.01;66.75;97170.41;4487037;32;20092;-82
2022/09/29 05:54:33;;;;;;;18.92;9.45;;;;;;;16.98;66.81;97178.72;4487517;32;20089;-84
2022/09/29 05:56:59;;;;;;;19.25;9.65;;;;;;;16.93;67.14;97180.22;4487442;32;20501;-82
2022/09/29 05:59:24;;;;;;;18.37;9.10;;;;;;;16.96;67.09;97183.38;4473462;32;20120;-82
2022/09/29 06:01:50;;;;;;;17.92;8.80;;;;;;;16.90;67.41;97192.84;4487598;32;20138;-82
2022/09/29 06:04:16;;;;;;;18.85;9.43;;;;;;;16.92;67.35;97199.81;4473199;32;20088;-83
2022/09/29 06:06:41;;;;;;;18.15;9.10;;;;;;;16.97;67.30;97187.69;4473048;32;20119;-83
2022/09/29 06:09:07;;;;;;;18.33;9.25;;;;;;;16.99;67.25;97193.69;4487523;32;20113;-82
2022/09/29 06:11:32;;;;;;;16.65;7.85;;;;;;;16.98;67.48;97210.66;4472989;32;20157;-83
2022/09/29 06:13:58;;;;;;;14.80;6.22;;;;;;;17.07;67.26;97199.03;4487644;32;20084;-81
2022/09/29 06:16:28;;;;;;;10.65;4.32;;;;;;;16.84;67.93;97203.28;4473592;32;20100;-81
2022/09/29 06:18:54;;;;;;;9.15;3.80;;;;;;;16.84;67.76;97196.16;4473688;32;20152;-83
2022/09/29 06:21:24;;;;;;;12.07;4.55;;;;;;;16.89;67.47;97200.97;4487751;32;20080;-83
2022/09/29 06:23:51;;;;;;;9.10;3.50;;;;;;;17.06;67.22;97199.19;4487927;32;20146;-83
2022/09/29 06:26:18;;;;;;;8.55;2.90;;;;;;;17.02;67.40;97196.03;4473833;32;20138;-83
2022/09/29 06:28:43;;;;;;;9.27;2.87;;;;;;;17.08;67.02;97200.69;4488039;32;20383;-82
2022/09/29 06:31:12;;;;;;;8.48;2.80;;;;;;;16.78;68.01;97204.72;4473706;32;20132;-83
2022/09/29 06:33:37;;;;;;;8.20;2.65;;;;;;;17.15;66.95;97202.69;4473566;32;20081;-83
2022/09/29 06:38:52;;;;;;;6.68;2.42;;;;;;;17.28;66.82;97203.84;4475886;32;20126;-83
2022/09/29 06:41:18;;;;;;;7.75;2.30;;;;;;;17.46;65.81;97216.19;4473451;32;20092;-83
2022/09/29 06:43:43;;;;;;;9.45;3.05;;;;;;;17.39;65.82;97213.38;4487768;32;20106;-83
2022/09/29 06:46:09;;;;;;;6.90;2.50;;;;;;;17.45;65.77;97219.84;4473591;32;20109;-83
2022/09/29 06:48:34;;;;;;;9.77;3.85;;;;;;;17.21;66.33;97224.16;4473448;32;20357;-82
2022/09/29 06:50:59;;;;;;;10.85;4.45;;;;;;;17.34;65.77;97226.31;4487927;32;20092;-83
2022/09/29 06:53:25;;;;;;;11.50;4.30;;;;;;;17.29;66.08;97229.50;4488087;32;20077;-83
2022/09/29 06:55:52;;;;;;;10.75;4.47;;;;;;;17.33;65.90;97227.34;4473731;32;20508;-83
2022/09/29 06:58:18;;;;;;;10.57;4.45;;;;;;;17.20;66.24;97219.00;4473470;32;20160;-83
2022/09/29 07:00:43;;;;;;;11.15;4.70;;;;;;;17.34;66.22;97220.19;4487726;32;20087;-83
2022/09/29 07:03:09;;;;;;;16.02;5.65;;;;;;;17.45;66.22;97218.03;4472477;32;20103;-83
2022/09/29 07:05:34;;;;;;;12.57;5.07;;;;;;;17.59;66.21;97218.34;4487805;32;20140;-83
2022/09/29 07:08:00;;;;;;;10.10;4.18;;;;;;;17.27;66.24;97222.69;4473375;32;20436;-82
2022/09/29 07:10:25;;;;;;;9.07;3.55;;;;;;;17.31;67.25;97229.34;4487653;32;20095;-82
2022/09/29 07:12:51;;;;;;;7.87;3.03;;;;;;;17.73;66.26;97225.69;4487540;32;20076;-82
2022/09/29 07:15:16;;;;;;;6.80;2.20;;;;;;;17.98;64.48;97231.00;4487233;32;20100;-82
2022/09/29 07:17:42;;;;;;;6.75;2.37;;;;;;;17.69;64.49;97233.19;4473362;32;20440;-82
2022/09/29 07:20:07;;;;;;;6.95;2.40;;;;;;;17.52;65.25;97236.84;4473350;32;20085;-83
2022/09/29 07:22:33;;;;;;;6.93;2.45;;;;;;;17.57;65.24;97236.34;4487293;32;20440;-82
2022/09/29 07:24:58;;;;;;;7.35;2.20;;;;;;;17.76;64.36;97236.00;4473256;32;20101;-82
2022/09/29 07:27:24;;;;;;;4.95;1.70;;;;;;;17.45;65.22;97238.50;4487575;32;20092;-83
2022/09/29 07:29:50;;;;;;;6.30;1.98;;;;;;;17.43;65.22;97248.47;4487452;32;20088;-83
2022/09/29 07:32:17;;;;;;;4.80;1.60;;;;;;;17.76;64.61;97248.50;4473163;32;20097;-83
2022/09/29 07:34:42;;;;;;;3.93;1.53;;;;;;;17.61;64.77;97249.13;4473184;32;20126;-83
2022/09/29 07:37:07;;;;;;;4.65;1.33;;;;;;;17.56;64.54;97254.16;4473154;32;20231;-83
2022/09/29 07:39:33;;;;;;;2.37;1.10;;;;;;;17.40;64.36;97268.28;4487318;32;20149;-83
2022/09/29 07:41:59;;;;;;;3.10;1.05;;;;;;;17.33;64.33;97263.78;4487038;32;20127;-82
2022/09/29 07:44:24;;;;;;;4.03;1.00;;;;;;;17.27;64.98;97258.09;4473180;32;20132;-83
2022/09/29 07:46:50;;;;;;;4.53;1.00;;;;;;;17.69;64.36;97251.81;4487271;32;20145;-83
2022/09/29 07:49:15;;;;;;;4.35;1.17;;;;;;;17.95;64.23;97258.00;4487607;32;20139;-83
2022/09/29 07:51:41;;;;;;;3.92;1.27;;;;;;;18.15;62.50;97261.97;4473364;32;20084;-83
2022/09/29 07:54:06;;;;;;;3.60;1.10;;;;;;;18.25;62.42;97265.31;4473262;32;20172;-83
2022/09/29 07:56:34;;;;;;;3.55;1.20;;;;;;;18.37;62.34;97265.78;4487463;32;20381;-83
2022/09/29 07:59:01;;;;;;;2.45;0.95;;;;;;;18.70;61.99;97267.47;4473264;32;20110;-83
2022/09/29 08:01:26;;;;;;;3.42;1.30;;;;;;;18.76;61.62;97266.81;4473202;32;20096;-83
2022/09/29 08:03:53;;;;;;;3.17;1.05;;;;;;;18.84;61.11;97269.47;4487289;32;20456;-83
2022/09/29 08:06:20;;;;;;;2.78;1.02;;;;;;;19.13;60.41;97262.69;4487456;32;20237;-82
2022/09/29 08:08:46;;;;;;;3.25;1.00;;;;;;;19.39;58.92;97265.84;4473314;32;20115;-83
2022/09/29 08:11:14;;;;;;;2.12;0.95;;;;;;;19.18;59.52;97268.28;4487295;32;20103;-83
2022/09/29 08:13:40;;;;;;;3.45;0.90;;;;;;;19.28;57.99;97268.06;4472533;32;20206;-83
2022/09/29 08:16:09;;;;;;;2.90;1.23;;;;;;;19.03;59.27;97274.38;4472865;32;20097;-83
2022/09/29 08:18:34;;;;;;;1.98;0.90;;;;;;;19.31;58.73;97275.75;4472734;32;20088;-83
2022/09/29 08:21:00;;;;;;;2.28;0.90;;;;;;;19.23;58.50;97266.75;4486965;32;20080;-82
2022/09/29 08:23:25;;;;;;;2.58;0.90;;;;;;;19.35;57.98;97269.03;4487276;32;20097;-83
2022/09/29 08:26:05;;;;;;;3.83;1.30;;;;;;;19.18;58.77;97282.50;4487279;32;20137;-83
2022/09/29 08:28:32;;;;;;;2.00;0.98;;;;;;;19.19;59.02;97288.66;4473234;32;20163;-83
2022/09/29 08:31:20;;;;;;;3.17;1.27;;;;;;;19.56;58.77;97289.78;4473151;32;20080;-83
2022/09/29 08:33:50;;;;;;;2.85;1.27;;;;;;;19.75;58.33;97286.66;4487384;32;20140;-83
2022/09/29 08:36:16;;;;;;;3.28;1.10;;;;;;;19.45;59.45;97283.84;4472837;32;20112;-83
2022/09/29 08:38:50;;;;;;;3.37;1.30;;;;;;;19.54;58.66;97297.97;4486973;32;20077;-83
2022/09/29 08:41:31;;;;;;;3.15;1.20;;;;;;;19.44;58.72;97295.50;4459751;32;20107;-83
2022/09/29 08:44:19;;;;;;;3.95;1.30;;;;;;;19.35;58.68;97307.25;4487058;32;20773;-83
2022/09/29 08:46:53;;;;;;;2.60;1.20;;;;;;;18.97;60.08;97303.63;4407564;32;20098;-83
2022/09/29 08:49:34;;;;;;;2.78;1.27;;;;;;;19.00;60.43;97296.06;4394939;32;21381;-83
2022/09/29 08:52:11;;;;;;;5.43;1.75;;;;;;;19.07;60.65;97298.91;4395007;32;20094;-83
2022/09/29 08:54:39;;;;;;;3.83;1.50;;;;;;;19.26;59.72;97294.97;4395097;32;20494;-83
2022/09/29 08:57:05;;;;;;;4.82;1.70;;;;;;;18.99;60.40;97296.28;4407340;32;20140;-83
2022/09/29 08:59:30;;;;;;;4.12;1.60;;;;;;;18.71;60.72;97309.19;4394595;32;20086;-83
2022/09/29 09:02:20;;;;;;;4.95;1.33;;;;;;;19.02;60.45;97306.59;4407253;32;20548;-83
2022/09/29 09:05:05;;;;;;;3.85;1.37;;;;;;;19.39;60.27;97311.25;4407313;32;20120;-83
2022/09/29 09:07:40;;;;;;;4.68;1.40;;;;;;;19.34;59.14;97310.94;4407305;32;20106;-83
2022/09/29 09:10:46;;;;;;;3.25;1.35;;;;;;;19.65;59.17;97308.22;4407252;32;20098;-83
2022/09/29 09:13:30;;;;;;;3.75;1.42;;;;;;;19.73;58.19;97318.06;4407465;32;20146;-83
2022/09/29 09:16:23;;;;;;;3.67;1.40;;;;;;;19.93;58.04;97318.41;4407211;32;20113;-83
2022/09/29 09:19:02;;;;;;;4.90;1.20;;;;;;;19.96;57.22;97310.03;4407060;32;20772;-84
2022/09/29 09:21:39;;;;;;;4.62;1.70;;;;;;;20.09;57.11;97312.13;4406950;32;20120;-83
2022/09/29 09:24:26;;;;;;;6.07;1.73;;;;;;;20.16;57.33;97314.88;4440892;32;20353;-83
2022/09/29 09:26:52;;;;;;;7.00;1.98;;;;;;;20.19;56.94;97320.72;4485549;32;20085;-83
2022/09/29 09:29:42;;;;;;;3.00;1.00;;;;;;;20.07;57.45;97324.84;4459322;32;20395;-83
2022/09/29 09:32:13;;;;;;;4.15;1.00;;;;;;;20.14;55.94;97330.28;4459260;32;20498;-83
2022/09/29 09:34:47;;;;;;;3.10;1.00;;;;;;;20.08;56.09;97333.69;4486534;32;20072;-83
2022/09/29 09:37:16;;;;;;;3.15;0.90;;;;;;;20.16;56.09;97338.97;4472203;32;20096;-83
2022/09/29 09:39:52;;;;;;;2.28;0.95;;;;;;;20.14;56.15;97346.31;4486490;32;20092;-83
2022/09/29 09:42:22;;;;;;;2.87;1.00;;;;;;;20.47;55.18;97341.50;4472301;32;20080;-83
2022/09/29 09:44:54;;;;;;;1.77;0.90;;;;;;;20.64;54.41;97336.03;4486298;32;20085;-83
2022/09/29 09:47:26;;;;;;;3.42;1.10;;;;;;;20.55;56.09;97332.56;4472095;32;20100;-83
2022/09/29 09:50:20;;;;;;;1.85;1.00;;;;;;;20.76;55.96;97331.88;4486404;32;20089;-83
2022/09/29 09:52:58;;;;;;;2.15;0.93;;;;;;;20.62;55.04;97334.37;4472026;32;20114;-84
2022/09/29 09:55:27;;;;;;;2.97;1.12;;;;;;;20.83;54.73;97343.53;4486166;32;20102;-84
2022/09/29 09:58:04;;;;;;;4.68;1.42;;;;;;;20.73;54.31;97346.47;4471707;32;20104;-84
2022/09/29 10:00:41;;;;;;;3.33;1.20;;;;;;;20.61;55.66;97351.44;4486061;32;20088;-84
2022/09/29 10:03:07;;;;;;;3.03;1.10;;;;;;;20.88;54.08;97349.16;4471920;32;20146;-83
2022/09/29 10:05:39;;;;;;;2.17;0.90;;;;;;;21.01;53.61;97345.81;4486004;32;20344;-83
2022/09/29 10:08:41;;;;;;;2.97;1.10;;;;;;;20.91;53.52;97340.75;4458843;32;20514;-84
2022/09/29 10:11:29;;;;;;;2.65;1.00;;;;;;;20.79;53.30;97329.69;4486064;32;20115;-83
2022/09/29 10:14:09;;;;;;;2.53;1.20;;;;;;;20.72;54.09;97327.91;4471934;32;20088;-83
2022/09/29 10:16:55;;;;;;;2.95;1.00;;;;;;;20.61;54.06;97332.72;4471723;32;20081;-83
2022/09/29 10:19:42;;;;;;;2.60;0.93;;;;;;;20.41;54.08;97340.37;4471627;32;20191;-83
2022/09/29 10:22:13;;;;;;;2.90;0.90;;;;;;;20.23;54.86;97348.75;4485131;32;20111;-84
2022/09/29 10:24:38;;;;;;;2.33;1.05;;;;;;;20.17;55.65;97349.47;4485860;32;20097;-83
2022/09/29 10:27:04;;;;;;;4.32;1.20;;;;;;;20.22;56.11;97351.59;4485701;32;20110;-83
2022/09/29 10:29:36;;;;;;;2.75;1.05;;;;;;;20.21;56.17;97347.28;4471508;32;20232;-83
2022/09/29 10:32:04;;;;;;;3.35;0.98;;;;;;;20.29;56.49;97339.19;4485788;32;20126;-83
2022/09/29 10:34:31;;;;;;;3.10;1.00;;;;;;;20.37;56.02;97339.09;4485750;32;20091;-83
2022/09/29 10:37:00;;;;;;;3.20;1.33;;;;;;;20.37;55.65;97347.13;4485757;32;20076;-84
2022/09/29 10:39:47;;;;;;;3.12;1.30;;;;;;;20.58;56.22;97345.59;4473537;32;20096;-83
2022/09/29 10:42:24;;;;;;;3.42;1.00;;;;;;;20.97;55.83;97345.34;4487841;32;20093;-84
2022/09/29 10:44:52;;;;;;;2.35;0.90;;;;;;;21.02;54.94;97342.97;4473585;32;20175;-83
2022/09/29 10:47:20;;;;;;;3.75;1.02;;;;;;;21.21;55.06;97340.75;4473735;32;20107;-83
2022/09/29 10:49:46;;;;;;;2.35;0.98;;;;;;;21.17;55.09;97345.66;4473833;32;20258;-83
2022/09/29 10:52:24;;;;;;;4.00;1.40;;;;;;;21.33;55.23;97349.13;4473920;32;20166;-83
2022/09/29 10:55:02;;;;;;;4.62;1.62;;;;;;;21.34;54.54;97357.00;4488093;32;20156;-83
2022/09/29 10:57:28;;;;;;;;;;;;;;;21.43;54.67;97354.19;4474337;32;20395;-83
2022/09/29 10:59:56;;;;;;;4.50;1.33;;;;;;;21.55;53.62;97347.34;4488073;32;20048;-83
2022/09/29 11:02:23;;;;;;;3.47;1.33;;;;;;;21.61;53.10;97349.28;4487979;32;20096;-83
2022/09/29 11:04:48;;;;;;;3.60;1.40;;;;;;;21.62;53.04;97344.75;4473409;32;20088;-83
2022/09/29 11:07:14;;;;;;;4.45;1.12;;;;;;;21.37;52.58;97351.25;4473429;32;20115;-83
2022/09/29 11:09:43;;;;;;;1.20;0.60;;;;;;;21.32;54.14;97355.50;4487569;32;20523;-83
2022/09/29 11:12:28;;;;;;;2.87;0.70;;;;;;;21.14;50.07;97356.72;4487647;32;20107;-83
2022/09/29 11:14:54;;;;;;;1.90;0.82;;;;;;;21.47;51.54;97363.53;4487698;32;20089;-83
2022/09/29 11:17:38;;;;;;;2.15;0.60;;;;;;;21.75;50.08;97358.28;4487805;32;20107;-83
2022/09/29 11:20:06;;;;;;;2.95;0.70;;;;;;;21.18;48.31;97362.53;4487805;32;20121;-84
2022/09/29 11:22:53;;;;;;;1.58;0.55;;;;;;;21.55;49.90;97363.44;4472945;32;20160;-83
2022/09/29 11:25:41;;;;;;;1.60;0.70;;;;;;;21.54;49.80;97359.94;4473601;32;20093;-83
2022/09/29 11:28:28;;;;;;;1.67;0.68;;;;;;;21.28;51.52;97363.06;4487568;32;20080;-83
2022/09/29 11:31:07;;;;;;;2.20;0.90;;;;;;;21.73;49.15;97363.00;4473220;32;20163;-83
2022/09/29 11:33:39;;;;;;;1.33;0.70;;;;;;;21.56;49.16;97359.75;4473228;32;20092;-83
2022/09/29 11:36:43;;;;;;;2.30;0.60;;;;;;;21.83;49.33;97360.88;4487382;32;20159;-83
2022/09/29 11:39:20;;;;;;;2.53;0.55;;;;;;;21.63;48.06;97363.31;4407700;32;20118;-84
2022/09/29 11:42:04;;;;;;;1.67;0.60;;;;;;;21.58;47.24;97363.87;4407856;32;20094;-83
2022/09/29 11:44:57;;;;;;;1.70;0.70;;;;;;;21.46;47.11;97359.19;4407834;32;20094;-83
2022/09/29 11:48:05;;;;;;;1.42;1.20;;;;;;;21.51;48.17;97365.66;4407707;32;20604;-83